Main page
METAR-TAF:

METAR-TAF

Airports :

Carolina Airport

Carolina, Maranhão, Brazil

latitude: 07-19S, longitude: 047-28W, elevation: 183 m

Current weather observation

The report was made 1 hour and 6 minutes ago, at 10:00 UTC
Wind 2 kt from the East/Northeast
Temperature 24°C
Humidity 100%
Pressure 1012 hPa
Visibility 10 km or more
Broken clouds at a height of 3000 ft

METAR: SBCI 061000Z 07002KT 9999 BKN030 24/24 Q1012

Time: 08:06 (11:06 UTC)


TAF: missing

Weather observations and forecasts of more than 4000 airports (METAR and TAF reports).

The available stations are represented by yellow and red dots on the map.

Hover mouse over dot to see the name of the station.

Then click to see weather observations and forecasts.

To change the map : click on the green buttons with a black cross to zoom in, on the green button with a dash to zoom out, or on the green arrows for adjacent maps.


METAR-TAF: